Huvudsida
METAR-TAF:

METAR-TAF

Flygplatser :

Lakselvs flygplats. Banak

Lakselv, Norge

latitud: 70-04N, longitud: 024-59E, höjd: 0 m

Aktuellt väderrapport

Denna rapport gjordes för 27 minuter sedan, klockan 00:50 UTC
Vind 17 kt från syd
Temperatur -8°C
Fuktighet 62%
Tryck 1022 hPa
Sikt 10 km eller mer

METAR: ENNA 200050Z AUTO 18017KT 9999 NCD M08/M14 Q1022 RMK WIND 1800FT 17028KT

Tid: 03:17 (01:17 UTC)

Väderprognos

Denna rapport gjordes för 2 timmar och 17 minuter sedan, klockan 23:00 UTC
Prognos gäller från 20 kl. 00 UTC till 20 kl. 24 UTC
Vind 18 kt från syd
Sikt 10 km eller mer
Inga moln under 1 500 m eller inga cumulonimbus
Blir
från 20 kl. 07 UTC till 20 kl. 10 UTC
Vind 8 kt från nord/nordost

TAF: ENNA 192300Z 2000/2024 18018KT CAVOK BECMG 2007/2010 02008KT

Aktuella väderrapporter och prognoser från 4000 flygplatser (METAR- och TAF-rapporter).

De tillgängliga stationerna syns som gula och röda prickar på kartan.

För musen över prickarna för att se namnen på stationerna.

Klicka sedan för att få väderrapporter och prognoser.

För att ändra kartan: Klicka på de gröna knapparna med ett svart kors på för att zooma in; den gröna knappen med ett streck på för att zooma ut; eller på de gröna pilarna för angränsande kartor.


METAR-TAF: